sensor_id;sensor_type;location;lat;lon;timestamp;temperature;humidity
19610;DHT22;9952;47.122;-1.638;2022-09-14T00:02:46;21.20;99.90
19610;DHT22;9952;47.122;-1.638;2022-09-14T00:07:27;21.10;99.90
19610;DHT22;9952;47.122;-1.638;2022-09-14T00:12:08;21.10;99.90
19610;DHT22;9952;47.122;-1.638;2022-09-14T00:16:50;21.00;99.90
19610;DHT22;9952;47.122;-1.638;2022-09-14T00:21:35;21.00;99.90
19610;DHT22;9952;47.122;-1.638;2022-09-14T00:26:20;20.90;99.90
19610;DHT22;9952;47.122;-1.638;2022-09-14T00:31:03;20.80;99.90
19610;DHT22;9952;47.122;-1.638;2022-09-14T00:35:43;20.70;99.90
19610;DHT22;9952;47.122;-1.638;2022-09-14T00:40:24;20.60;99.90
19610;DHT22;9952;47.122;-1.638;2022-09-14T00:45:18;20.60;99.90
19610;DHT22;9952;47.122;-1.638;2022-09-14T00:50:00;20.70;99.90
19610;DHT22;9952;47.122;-1.638;2022-09-14T00:54:48;20.70;99.90
19610;DHT22;9952;47.122;-1.638;2022-09-14T00:59:31;20.60;99.90
19610;DHT22;9952;47.122;-1.638;2022-09-14T01:04:13;20.70;99.90
19610;DHT22;9952;47.122;-1.638;2022-09-14T01:13:54;20.70;99.90
19610;DHT22;9952;47.122;-1.638;2022-09-14T01:18:48;20.70;99.90
19610;DHT22;9952;47.122;-1.638;2022-09-14T01:23:54;20.70;99.90
19610;DHT22;9952;47.122;-1.638;2022-09-14T01:28:49;20.60;99.90
19610;DHT22;9952;47.122;-1.638;2022-09-14T01:33:41;20.60;99.90
19610;DHT22;9952;47.122;-1.638;2022-09-14T01:38:31;20.60;99.90
19610;DHT22;9952;47.122;-1.638;2022-09-14T01:43:42;20.60;99.90
19610;DHT22;9952;47.122;-1.638;2022-09-14T01:48:31;20.60;99.90
19610;DHT22;9952;47.122;-1.638;2022-09-14T01:53:21;20.60;99.90
19610;DHT22;9952;47.122;-1.638;2022-09-14T01:58:20;20.50;99.90
19610;DHT22;9952;47.122;-1.638;2022-09-14T02:03:16;20.50;99.90
19610;DHT22;9952;47.122;-1.638;2022-09-14T02:07:58;20.40;99.90
19610;DHT22;9952;47.122;-1.638;2022-09-14T02:12:40;20.40;99.90
19610;DHT22;9952;47.122;-1.638;2022-09-14T02:17:21;20.30;99.90
19610;DHT22;9952;47.122;-1.638;2022-09-14T02:22:02;20.30;99.90
19610;DHT22;9952;47.122;-1.638;2022-09-14T02:26:43;20.20;99.90
19610;DHT22;9952;47.122;-1.638;2022-09-14T02:36:22;20.10;99.90
19610;DHT22;9952;47.122;-1.638;2022-09-14T02:41:15;20.10;99.90
19610;DHT22;9952;47.122;-1.638;2022-09-14T02:55:47;20.10;99.90
19610;DHT22;9952;47.122;-1.638;2022-09-14T03:00:30;20.20;99.90
19610;DHT22;9952;47.122;-1.638;2022-09-14T03:05:11;20.10;99.90
19610;DHT22;9952;47.122;-1.638;2022-09-14T03:09:52;20.10;99.90
19610;DHT22;9952;47.122;-1.638;2022-09-14T03:14:33;20.00;99.90
19610;DHT22;9952;47.122;-1.638;2022-09-14T03:19:14;20.00;99.90
19610;DHT22;9952;47.122;-1.638;2022-09-14T03:23:55;19.90;99.90
19610;DHT22;9952;47.122;-1.638;2022-09-14T03:28:37;19.90;99.90
19610;DHT22;9952;47.122;-1.638;2022-09-14T03:33:18;19.80;99.90
19610;DHT22;9952;47.122;-1.638;2022-09-14T03:37:59;19.80;99.90
19610;DHT22;9952;47.122;-1.638;2022-09-14T03:42:44;19.70;99.90
19610;DHT22;9952;47.122;-1.638;2022-09-14T03:47:25;19.60;99.90
19610;DHT22;9952;47.122;-1.638;2022-09-14T03:52:06;19.60;99.90
19610;DHT22;9952;47.122;-1.638;2022-09-14T03:56:47;19.40;99.90
19610;DHT22;9952;47.122;-1.638;2022-09-14T04:01:28;19.30;99.90
19610;DHT22;9952;47.122;-1.638;2022-09-14T04:06:09;19.30;99.90
19610;DHT22;9952;47.122;-1.638;2022-09-14T04:10:50;19.20;99.90
19610;DHT22;9952;47.122;-1.638;2022-09-14T04:15:31;19.10;99.90
19610;DHT22;9952;47.122;-1.638;2022-09-14T04:20:12;19.00;99.90
19610;DHT22;9952;47.122;-1.638;2022-09-14T04:24:53;19.00;99.90
19610;DHT22;9952;47.122;-1.638;2022-09-14T04:29:34;18.90;99.90
19610;DHT22;9952;47.122;-1.638;2022-09-14T04:34:14;18.80;99.90
19610;DHT22;9952;47.122;-1.638;2022-09-14T04:39:00;18.80;99.90
19610;DHT22;9952;47.122;-1.638;2022-09-14T04:43:42;18.70;99.90
19610;DHT22;9952;47.122;-1.638;2022-09-14T04:48:23;18.70;99.90
19610;DHT22;9952;47.122;-1.638;2022-09-14T04:53:04;18.60;99.90
19610;DHT22;9952;47.122;-1.638;2022-09-14T04:57:44;18.50;99.90
19610;DHT22;9952;47.122;-1.638;2022-09-14T05:02:25;18.50;99.90
19610;DHT22;9952;47.122;-1.638;2022-09-14T05:07:06;18.40;99.90
19610;DHT22;9952;47.122;-1.638;2022-09-14T05:11:47;18.30;99.90
19610;DHT22;9952;47.122;-1.638;2022-09-14T05:16:33;18.30;99.90
19610;DHT22;9952;47.122;-1.638;2022-09-14T05:21:16;18.20;99.90
19610;DHT22;9952;47.122;-1.638;2022-09-14T05:25:58;18.20;99.90
19610;DHT22;9952;47.122;-1.638;2022-09-14T05:30:39;18.10;99.90
19610;DHT22;9952;47.122;-1.638;2022-09-14T05:35:20;18.10;99.90
19610;DHT22;9952;47.122;-1.638;2022-09-14T05:40:01;18.00;99.90
19610;DHT22;9952;47.122;-1.638;2022-09-14T05:44:42;18.00;99.90
19610;DHT22;9952;47.122;-1.638;2022-09-14T05:49:22;18.00;99.90
19610;DHT22;9952;47.122;-1.638;2022-09-14T05:54:04;17.90;99.90
19610;DHT22;9952;47.122;-1.638;2022-09-14T05:58:51;17.90;99.90
19610;DHT22;9952;47.122;-1.638;2022-09-14T06:03:31;17.90;99.90
19610;DHT22;9952;47.122;-1.638;2022-09-14T06:08:12;18.00;99.90
19610;DHT22;9952;47.122;-1.638;2022-09-14T06:12:53;18.00;99.90
19610;DHT22;9952;47.122;-1.638;2022-09-14T06:17:34;18.00;99.90
19610;DHT22;9952;47.122;-1.638;2022-09-14T06:22:15;18.10;99.90
19610;DHT22;9952;47.122;-1.638;2022-09-14T06:26:56;18.10;99.90
19610;DHT22;9952;47.122;-1.638;2022-09-14T06:31:36;18.20;99.90
19610;DHT22;9952;47.122;-1.638;2022-09-14T06:36:20;18.30;99.90
19610;DHT22;9952;47.122;-1.638;2022-09-14T06:41:03;18.40;99.90
19610;DHT22;9952;47.122;-1.638;2022-09-14T06:46:03;18.40;99.90
19610;DHT22;9952;47.122;-1.638;2022-09-14T06:50:44;18.50;99.90
19610;DHT22;9952;47.122;-1.638;2022-09-14T06:55:25;18.50;99.90
19610;DHT22;9952;47.122;-1.638;2022-09-14T07:00:07;18.60;99.90
19610;DHT22;9952;47.122;-1.638;2022-09-14T07:04:48;18.70;99.90
19610;DHT22;9952;47.122;-1.638;2022-09-14T07:09:29;18.80;99.90
19610;DHT22;9952;47.122;-1.638;2022-09-14T07:14:11;18.90;99.90
19610;DHT22;9952;47.122;-1.638;2022-09-14T07:18:55;19.00;99.90
19610;DHT22;9952;47.122;-1.638;2022-09-14T07:23:38;19.00;99.90
19610;DHT22;9952;47.122;-1.638;2022-09-14T07:28:19;19.10;99.90
19610;DHT22;9952;47.122;-1.638;2022-09-14T07:33:00;19.20;99.90
19610;DHT22;9952;47.122;-1.638;2022-09-14T07:37:41;19.30;99.90
19610;DHT22;9952;47.122;-1.638;2022-09-14T07:42:22;19.40;99.90
19610;DHT22;9952;47.122;-1.638;2022-09-14T07:47:03;19.50;99.90
19610;DHT22;9952;47.122;-1.638;2022-09-14T07:51:44;19.60;99.90
19610;DHT22;9952;47.122;-1.638;2022-09-14T07:56:25;19.70;99.90
19610;DHT22;9952;47.122;-1.638;2022-09-14T08:01:11;19.80;99.90
19610;DHT22;9952;47.122;-1.638;2022-09-14T08:06:02;19.90;99.90
19610;DHT22;9952;47.122;-1.638;2022-09-14T08:10:45;20.00;99.90
19610;DHT22;9952;47.122;-1.638;2022-09-14T08:15:26;20.10;99.90
19610;DHT22;9952;47.122;-1.638;2022-09-14T08:20:08;20.20;99.90
19610;DHT22;9952;47.122;-1.638;2022-09-14T08:24:49;20.30;99.90
19610;DHT22;9952;47.122;-1.638;2022-09-14T08:29:29;20.40;99.90
19610;DHT22;9952;47.122;-1.638;2022-09-14T08:34:10;20.40;99.90
19610;DHT22;9952;47.122;-1.638;2022-09-14T08:38:51;20.50;99.90
19610;DHT22;9952;47.122;-1.638;2022-09-14T08:43:32;20.60;99.90
19610;DHT22;9952;47.122;-1.638;2022-09-14T08:48:36;20.80;99.90
19610;DHT22;9952;47.122;-1.638;2022-09-14T08:53:20;20.90;99.90
19610;DHT22;9952;47.122;-1.638;2022-09-14T08:58:18;21.10;99.90
19610;DHT22;9952;47.122;-1.638;2022-09-14T09:03:18;21.30;99.90
19610;DHT22;9952;47.122;-1.638;2022-09-14T09:13:03;21.60;99.90
19610;DHT22;9952;47.122;-1.638;2022-09-14T09:17:48;21.80;99.90
19610;DHT22;9952;47.122;-1.638;2022-09-14T09:27:27;22.30;99.90
19610;DHT22;9952;47.122;-1.638;2022-09-14T09:32:17;22.50;99.90
19610;DHT22;9952;47.122;-1.638;2022-09-14T09:36:59;22.80;99.90
19610;DHT22;9952;47.122;-1.638;2022-09-14T09:46:24;22.90;99.90
19610;DHT22;9952;47.122;-1.638;2022-09-14T09:56:04;23.20;99.90
19610;DHT22;9952;47.122;-1.638;2022-09-14T10:00:55;23.40;99.90
19610;DHT22;9952;47.122;-1.638;2022-09-14T10:05:36;23.60;99.90
19610;DHT22;9952;47.122;-1.638;2022-09-14T10:10:40;23.60;99.90
19610;DHT22;9952;47.122;-1.638;2022-09-14T10:15:30;23.80;99.90
19610;DHT22;9952;47.122;-1.638;2022-09-14T10:20:20;23.90;99.90
19610;DHT22;9952;47.122;-1.638;2022-09-14T10:29:54;23.90;99.90
19610;DHT22;9952;47.122;-1.638;2022-09-14T10:34:36;23.80;99.90
19610;DHT22;9952;47.122;-1.638;2022-09-14T10:39:50;23.90;99.90
19610;DHT22;9952;47.122;-1.638;2022-09-14T10:45:01;24.00;99.90
19610;DHT22;9952;47.122;-1.638;2022-09-14T10:49:49;24.10;99.90
19610;DHT22;9952;47.122;-1.638;2022-09-14T10:59:52;24.50;99.90
19610;DHT22;9952;47.122;-1.638;2022-09-14T11:04:56;24.60;99.90
19610;DHT22;9952;47.122;-1.638;2022-09-14T11:19:41;24.90;99.90
19610;DHT22;9952;47.122;-1.638;2022-09-14T11:24:33;24.90;99.90
19610;DHT22;9952;47.122;-1.638;2022-09-14T11:29:43;24.90;99.90
19610;DHT22;9952;47.122;-1.638;2022-09-14T11:34:51;24.90;99.90
19610;DHT22;9952;47.122;-1.638;2022-09-14T11:39:47;24.90;99.90
19610;DHT22;9952;47.122;-1.638;2022-09-14T11:44:39;25.00;99.90
19610;DHT22;9952;47.122;-1.638;2022-09-14T11:49:26;25.00;99.90
19610;DHT22;9952;47.122;-1.638;2022-09-14T11:54:14;25.00;99.90
19610;DHT22;9952;47.122;-1.638;2022-09-14T11:58:59;25.10;99.90
19610;DHT22;9952;47.122;-1.638;2022-09-14T12:13:22;25.20;99.90
19610;DHT22;9952;47.122;-1.638;2022-09-14T12:22:48;25.40;99.90
19610;DHT22;9952;47.122;-1.638;2022-09-14T12:27:30;25.40;99.90
19610;DHT22;9952;47.122;-1.638;2022-09-14T12:32:26;25.50;99.90
19610;DHT22;9952;47.122;-1.638;2022-09-14T12:37:29;25.60;99.90
19610;DHT22;9952;47.122;-1.638;2022-09-14T12:42:29;25.80;99.90
19610;DHT22;9952;47.122;-1.638;2022-09-14T12:52:15;25.90;99.90
19610;DHT22;9952;47.122;-1.638;2022-09-14T12:57:14;25.90;99.90
19610;DHT22;9952;47.122;-1.638;2022-09-14T13:07:04;26.00;99.90
19610;DHT22;9952;47.122;-1.638;2022-09-14T13:11:52;26.20;99.90
19610;DHT22;9952;47.122;-1.638;2022-09-14T13:16:39;26.50;99.90
19610;DHT22;9952;47.122;-1.638;2022-09-14T13:21:23;26.80;99.90
19610;DHT22;9952;47.122;-1.638;2022-09-14T13:31:00;27.10;99.90
19610;DHT22;9952;47.122;-1.638;2022-09-14T13:35:55;26.90;99.90
19610;DHT22;9952;47.122;-1.638;2022-09-14T13:40:36;26.60;99.90
19610;DHT22;9952;47.122;-1.638;2022-09-14T13:45:17;26.30;99.90
19610;DHT22;9952;47.122;-1.638;2022-09-14T13:49:58;26.10;99.90
19610;DHT22;9952;47.122;-1.638;2022-09-14T13:54:39;25.90;99.90
19610;DHT22;9952;47.122;-1.638;2022-09-14T13:59:21;25.90;99.90
19610;DHT22;9952;47.122;-1.638;2022-09-14T14:04:02;25.90;99.90
19610;DHT22;9952;47.122;-1.638;2022-09-14T14:08:43;26.20;99.90
19610;DHT22;9952;47.122;-1.638;2022-09-14T14:13:29;26.40;99.90
19610;DHT22;9952;47.122;-1.638;2022-09-14T14:18:53;26.70;99.90
19610;DHT22;9952;47.122;-1.638;2022-09-14T14:23:34;27.00;99.90
19610;DHT22;9952;47.122;-1.638;2022-09-14T14:28:17;27.20;99.90
19610;DHT22;9952;47.122;-1.638;2022-09-14T14:32:58;27.10;99.90
19610;DHT22;9952;47.122;-1.638;2022-09-14T14:37:40;27.30;99.90
19610;DHT22;9952;47.122;-1.638;2022-09-14T14:42:27;27.40;99.90
19610;DHT22;9952;47.122;-1.638;2022-09-14T14:47:10;27.40;99.90
19610;DHT22;9952;47.122;-1.638;2022-09-14T14:51:52;27.40;99.90
19610;DHT22;9952;47.122;-1.638;2022-09-14T14:56:33;27.20;99.90
19610;DHT22;9952;47.122;-1.638;2022-09-14T15:01:14;27.00;99.90
19610;DHT22;9952;47.122;-1.638;2022-09-14T15:05:55;27.00;99.90
19610;DHT22;9952;47.122;-1.638;2022-09-14T15:10:36;26.80;99.90
19610;DHT22;9952;47.122;-1.638;2022-09-14T15:15:22;26.70;99.90
19610;DHT22;9952;47.122;-1.638;2022-09-14T15:20:03;26.70;99.90
19610;DHT22;9952;47.122;-1.638;2022-09-14T15:24:44;26.70;99.90
19610;DHT22;9952;47.122;-1.638;2022-09-14T15:29:25;26.80;99.90
19610;DHT22;9952;47.122;-1.638;2022-09-14T15:34:06;26.90;99.90
19610;DHT22;9952;47.122;-1.638;2022-09-14T15:38:47;26.70;99.90
19610;DHT22;9952;47.122;-1.638;2022-09-14T15:43:28;26.60;99.90
19610;DHT22;9952;47.122;-1.638;2022-09-14T15:48:16;26.30;99.90
19610;DHT22;9952;47.122;-1.638;2022-09-14T15:52:57;26.00;99.90
19610;DHT22;9952;47.122;-1.638;2022-09-14T15:57:39;25.80;99.90
19610;DHT22;9952;47.122;-1.638;2022-09-14T16:02:19;25.70;99.90
19610;DHT22;9952;47.122;-1.638;2022-09-14T16:07:00;25.70;99.90
19610;DHT22;9952;47.122;-1.638;2022-09-14T16:11:41;25.50;99.90
19610;DHT22;9952;47.122;-1.638;2022-09-14T16:16:22;25.30;99.90
19610;DHT22;9952;47.122;-1.638;2022-09-14T16:21:15;25.10;99.90
19610;DHT22;9952;47.122;-1.638;2022-09-14T16:25:56;25.00;99.90
19610;DHT22;9952;47.122;-1.638;2022-09-14T16:30:37;24.90;99.90
19610;DHT22;9952;47.122;-1.638;2022-09-14T16:35:18;24.70;99.90
19610;DHT22;9952;47.122;-1.638;2022-09-14T16:39:58;24.70;99.90
19610;DHT22;9952;47.122;-1.638;2022-09-14T16:44:39;24.70;99.90
19610;DHT22;9952;47.122;-1.638;2022-09-14T16:49:20;24.80;99.90
19610;DHT22;9952;47.122;-1.638;2022-09-14T16:54:01;24.60;99.90
19610;DHT22;9952;47.122;-1.638;2022-09-14T16:58:43;24.50;99.90
19610;DHT22;9952;47.122;-1.638;2022-09-14T17:03:26;24.30;99.90
19610;DHT22;9952;47.122;-1.638;2022-09-14T17:08:08;24.10;99.90
19610;DHT22;9952;47.122;-1.638;2022-09-14T17:12:48;24.00;99.90
19610;DHT22;9952;47.122;-1.638;2022-09-14T17:17:29;23.80;99.90
19610;DHT22;9952;47.122;-1.638;2022-09-14T17:22:10;23.60;99.90
19610;DHT22;9952;47.122;-1.638;2022-09-14T17:26:51;23.60;99.90
19610;DHT22;9952;47.122;-1.638;2022-09-14T17:31:34;23.40;99.90
19610;DHT22;9952;47.122;-1.638;2022-09-14T17:36:16;23.30;99.90
19610;DHT22;9952;47.122;-1.638;2022-09-14T17:41:04;23.30;99.90
19610;DHT22;9952;47.122;-1.638;2022-09-14T17:45:53;23.20;99.90
19610;DHT22;9952;47.122;-1.638;2022-09-14T17:50:38;23.10;99.90
19610;DHT22;9952;47.122;-1.638;2022-09-14T17:55:18;23.00;99.90
19610;DHT22;9952;47.122;-1.638;2022-09-14T17:59:59;22.80;99.90
19610;DHT22;9952;47.122;-1.638;2022-09-14T18:04:40;22.70;99.90
19610;DHT22;9952;47.122;-1.638;2022-09-14T18:09:22;22.60;99.90
19610;DHT22;9952;47.122;-1.638;2022-09-14T18:14:04;22.30;99.90
19610;DHT22;9952;47.122;-1.638;2022-09-14T18:18:45;22.20;99.90
19610;DHT22;9952;47.122;-1.638;2022-09-14T18:23:27;22.00;99.90
19610;DHT22;9952;47.122;-1.638;2022-09-14T18:28:08;22.00;99.90
19610;DHT22;9952;47.122;-1.638;2022-09-14T18:32:49;22.00;99.90
19610;DHT22;9952;47.122;-1.638;2022-09-14T18:37:30;22.00;99.90
19610;DHT22;9952;47.122;-1.638;2022-09-14T18:42:11;21.90;99.90
19610;DHT22;9952;47.122;-1.638;2022-09-14T18:46:52;21.80;99.90
19610;DHT22;9952;47.122;-1.638;2022-09-14T18:51:33;21.70;99.90
19610;DHT22;9952;47.122;-1.638;2022-09-14T18:56:15;21.60;99.90
19610;DHT22;9952;47.122;-1.638;2022-09-14T19:01:01;21.50;99.90
19610;DHT22;9952;47.122;-1.638;2022-09-14T19:05:42;21.40;99.90
19610;DHT22;9952;47.122;-1.638;2022-09-14T19:10:23;21.30;99.90
19610;DHT22;9952;47.122;-1.638;2022-09-14T19:15:05;21.20;99.90
19610;DHT22;9952;47.122;-1.638;2022-09-14T19:19:46;21.10;99.90
19610;DHT22;9952;47.122;-1.638;2022-09-14T19:24:27;21.00;99.90
19610;DHT22;9952;47.122;-1.638;2022-09-14T19:29:11;20.90;99.90
19610;DHT22;9952;47.122;-1.638;2022-09-14T19:33:52;20.80;99.90
19610;DHT22;9952;47.122;-1.638;2022-09-14T19:38:33;20.80;99.90
19610;DHT22;9952;47.122;-1.638;2022-09-14T19:43:14;20.70;99.90
19610;DHT22;9952;47.122;-1.638;2022-09-14T19:47:55;20.60;99.90
19610;DHT22;9952;47.122;-1.638;2022-09-14T19:52:35;20.50;99.90
19610;DHT22;9952;47.122;-1.638;2022-09-14T19:57:16;20.50;99.90
19610;DHT22;9952;47.122;-1.638;2022-09-14T20:01:57;20.50;99.90
19610;DHT22;9952;47.122;-1.638;2022-09-14T20:06:40;20.40;99.90
19610;DHT22;9952;47.122;-1.638;2022-09-14T20:11:24;20.40;99.90
19610;DHT22;9952;47.122;-1.638;2022-09-14T20:16:25;20.30;99.90
19610;DHT22;9952;47.122;-1.638;2022-09-14T20:21:17;20.20;99.90
19610;DHT22;9952;47.122;-1.638;2022-09-14T20:26:05;20.10;99.90
19610;DHT22;9952;47.122;-1.638;2022-09-14T20:30:56;20.20;99.90
19610;DHT22;9952;47.122;-1.638;2022-09-14T20:35:36;20.20;99.90
19610;DHT22;9952;47.122;-1.638;2022-09-14T20:40:17;20.10;99.90
19610;DHT22;9952;47.122;-1.638;2022-09-14T20:44:58;20.00;99.90
19610;DHT22;9952;47.122;-1.638;2022-09-14T20:49:39;19.90;99.90
19610;DHT22;9952;47.122;-1.638;2022-09-14T20:54:20;19.90;99.90
19610;DHT22;9952;47.122;-1.638;2022-09-14T20:59:02;19.90;99.90
19610;DHT22;9952;47.122;-1.638;2022-09-14T21:03:44;20.00;99.90
19610;DHT22;9952;47.122;-1.638;2022-09-14T21:08:27;20.00;99.90
19610;DHT22;9952;47.122;-1.638;2022-09-14T21:13:08;20.00;99.90
19610;DHT22;9952;47.122;-1.638;2022-09-14T21:17:50;20.00;99.90
19610;DHT22;9952;47.122;-1.638;2022-09-14T21:22:31;20.10;99.90
19610;DHT22;9952;47.122;-1.638;2022-09-14T21:27:12;20.10;99.90
19610;DHT22;9952;47.122;-1.638;2022-09-14T21:31:53;20.10;99.90
19610;DHT22;9952;47.122;-1.638;2022-09-14T21:36:39;20.00;99.90
19610;DHT22;9952;47.122;-1.638;2022-09-14T21:41:22;20.00;99.90
19610;DHT22;9952;47.122;-1.638;2022-09-14T21:46:03;20.00;99.90
19610;DHT22;9952;47.122;-1.638;2022-09-14T21:50:44;20.00;99.90
19610;DHT22;9952;47.122;-1.638;2022-09-14T21:55:25;20.00;99.90
19610;DHT22;9952;47.122;-1.638;2022-09-14T22:00:08;20.00;99.90
19610;DHT22;9952;47.122;-1.638;2022-09-14T22:04:50;20.10;99.90
19610;DHT22;9952;47.122;-1.638;2022-09-14T22:09:31;20.00;99.90
19610;DHT22;9952;47.122;-1.638;2022-09-14T22:14:14;20.00;99.90
19610;DHT22;9952;47.122;-1.638;2022-09-14T22:18:57;20.10;99.90
19610;DHT22;9952;47.122;-1.638;2022-09-14T22:23:38;20.00;99.90
19610;DHT22;9952;47.122;-1.638;2022-09-14T22:28:19;20.00;99.90
19610;DHT22;9952;47.122;-1.638;2022-09-14T22:33:00;20.00;99.90
19610;DHT22;9952;47.122;-1.638;2022-09-14T22:37:41;20.00;99.90
19610;DHT22;9952;47.122;-1.638;2022-09-14T22:42:24;20.00;99.90
19610;DHT22;9952;47.122;-1.638;2022-09-14T22:47:05;20.00;99.90
19610;DHT22;9952;47.122;-1.638;2022-09-14T22:51:46;20.00;99.90
19610;DHT22;9952;47.122;-1.638;2022-09-14T22:56:33;20.00;99.90
19610;DHT22;9952;47.122;-1.638;2022-09-14T23:01:20;19.90;99.90
19610;DHT22;9952;47.122;-1.638;2022-09-14T23:06:01;19.90;99.90
19610;DHT22;9952;47.122;-1.638;2022-09-14T23:10:43;19.90;99.90
19610;DHT22;9952;47.122;-1.638;2022-09-14T23:15:24;19.90;99.90
19610;DHT22;9952;47.122;-1.638;2022-09-14T23:20:06;19.90;99.90
19610;DHT22;9952;47.122;-1.638;2022-09-14T23:24:47;19.90;99.90
19610;DHT22;9952;47.122;-1.638;2022-09-14T23:29:27;20.00;99.90
19610;DHT22;9952;47.122;-1.638;2022-09-14T23:34:08;20.00;99.90
19610;DHT22;9952;47.122;-1.638;2022-09-14T23:38:50;20.00;99.90
19610;DHT22;9952;47.122;-1.638;2022-09-14T23:43:31;20.00;99.90
19610;DHT22;9952;47.122;-1.638;2022-09-14T23:48:13;20.00;99.90
19610;DHT22;9952;47.122;-1.638;2022-09-14T23:52:54;20.00;99.90
19610;DHT22;9952;47.122;-1.638;2022-09-14T23:57:36;20.10;99.90
